createdAt,value
2023-05-04T00:02:08.294Z,6.84
2023-05-04T00:04:42.397Z,6.83
2023-05-04T00:07:14.658Z,6.84
2023-05-04T00:09:46.839Z,6.85
2023-05-04T00:12:19.147Z,6.83
2023-05-04T00:14:51.262Z,6.78
2023-05-04T00:17:23.362Z,6.73
2023-05-04T00:19:55.752Z,6.72
2023-05-04T00:22:28.124Z,6.71
2023-05-04T00:25:00.264Z,6.73
2023-05-04T00:27:35.205Z,6.72
2023-05-04T00:30:08.798Z,6.73
2023-05-04T00:32:41.298Z,6.72
2023-05-04T00:35:13.579Z,6.69
2023-05-04T00:37:46.673Z,6.69
2023-05-04T00:40:18.619Z,6.65
2023-05-04T00:42:50.921Z,6.59
2023-05-04T00:45:23.298Z,6.53
2023-05-04T00:47:56.160Z,6.50
2023-05-04T00:50:29.825Z,6.47
2023-05-04T00:53:04.915Z,6.44
2023-05-04T00:55:41.247Z,6.46
2023-05-04T00:58:13.715Z,6.45
2023-05-04T01:00:46.173Z,6.43
2023-05-04T01:03:18.710Z,6.44
2023-05-04T01:06:08.344Z,6.45
2023-05-04T01:08:45.935Z,6.45
2023-05-04T01:11:21.518Z,6.39
2023-05-04T01:13:54.567Z,6.33
2023-05-04T01:16:26.633Z,6.28
2023-05-04T01:18:58.684Z,6.23
2023-05-04T01:21:31.651Z,6.18
2023-05-04T01:24:03.817Z,6.19
2023-05-04T01:26:41.831Z,6.18
2023-05-04T01:29:16.934Z,6.17
2023-05-04T01:31:51.085Z,6.17
2023-05-04T01:34:25.057Z,6.15
2023-05-04T01:36:59.059Z,6.17
2023-05-04T01:39:31.478Z,6.14
2023-05-04T01:42:07.076Z,6.08
2023-05-04T01:44:39.578Z,6.01
2023-05-04T01:47:11.851Z,6.00
2023-05-04T01:49:44.036Z,5.99
2023-05-04T01:52:16.240Z,6.02
2023-05-04T01:54:48.805Z,6.04
2023-05-04T01:57:20.990Z,6.09
2023-05-04T01:59:53.079Z,6.11
2023-05-04T02:02:25.823Z,6.14
2023-05-04T02:04:57.880Z,6.15
2023-05-04T02:07:30.073Z,6.16
2023-05-04T02:10:02.899Z,6.17
2023-05-04T02:12:35.867Z,6.22
2023-05-04T02:15:08.764Z,6.25
2023-05-04T02:17:41.014Z,6.29
2023-05-04T02:20:13.734Z,6.28
2023-05-04T02:22:47.410Z,6.29
2023-05-04T02:25:20.216Z,6.30
2023-05-04T02:27:52.239Z,6.32
2023-05-04T02:30:24.689Z,6.39
2023-05-04T02:32:56.881Z,6.48
2023-05-04T02:35:29.037Z,6.57
2023-05-04T02:38:01.320Z,6.68
2023-05-04T02:40:33.994Z,6.76
2023-05-04T02:43:06.042Z,6.80
2023-05-04T02:45:39.664Z,6.87
2023-05-04T02:48:12.108Z,6.94
2023-05-04T02:50:46.626Z,6.99
2023-05-04T02:53:18.192Z,7.07
2023-05-04T02:55:49.948Z,7.28
2023-05-04T02:58:22.344Z,7.26
2023-05-04T03:00:57.760Z,7.33
2023-05-04T03:03:30.625Z,7.37
2023-05-04T03:06:03.520Z,7.44
2023-05-04T03:08:36.312Z,7.50
2023-05-04T03:11:08.737Z,7.56
2023-05-04T03:13:41.717Z,7.63
2023-05-04T03:16:13.903Z,7.72
2023-05-04T03:18:46.488Z,7.80
2023-05-04T03:21:19.091Z,7.86
2023-05-04T03:23:52.842Z,7.96
2023-05-04T03:26:25.839Z,8.03
2023-05-04T03:28:58.445Z,8.08
2023-05-04T03:31:31.060Z,8.15
2023-05-04T03:34:03.775Z,8.19
2023-05-04T03:36:36.523Z,8.27
2023-05-04T03:39:09.374Z,8.36
2023-05-04T03:41:41.949Z,8.48
2023-05-04T03:44:14.198Z,8.57
2023-05-04T03:46:46.317Z,8.68
2023-05-04T03:49:18.631Z,8.76
2023-05-04T03:51:50.869Z,8.84
2023-05-04T03:54:23.420Z,8.92
2023-05-04T03:56:55.967Z,8.98
2023-05-04T03:59:28.438Z,9.07
2023-05-04T04:02:01.600Z,9.14
2023-05-04T04:04:34.400Z,9.24
2023-05-04T04:07:07.106Z,9.35
2023-05-04T04:09:39.567Z,9.42
2023-05-04T04:12:11.770Z,9.49
2023-05-04T04:14:44.223Z,9.53
2023-05-04T04:17:16.971Z,9.60
2023-05-04T04:19:49.563Z,9.70
2023-05-04T04:22:22.185Z,9.77
2023-05-04T04:24:54.669Z,9.85
2023-05-04T04:27:26.829Z,9.93
2023-05-04T04:29:59.569Z,9.98
2023-05-04T04:32:34.296Z,10.05
2023-05-04T04:35:07.080Z,10.26
2023-05-04T04:37:39.346Z,10.15
2023-05-04T04:40:13.228Z,10.21
2023-05-04T04:42:45.680Z,10.27
2023-05-04T04:45:18.126Z,10.31
2023-05-04T04:47:50.489Z,10.37
2023-05-04T04:50:22.828Z,10.43
2023-05-04T04:52:55.490Z,10.47
2023-05-04T04:55:27.907Z,10.52
2023-05-04T04:58:01.238Z,10.56
2023-05-04T05:00:33.431Z,10.60
2023-05-04T05:03:06.080Z,10.64
2023-05-04T05:05:38.424Z,10.68
2023-05-04T05:08:10.673Z,10.73
2023-05-04T05:10:44.094Z,10.79
2023-05-04T05:13:16.949Z,10.88
2023-05-04T05:15:49.450Z,10.96
2023-05-04T05:18:22.300Z,11.05
2023-05-04T05:20:54.769Z,11.13
2023-05-04T05:23:27.019Z,11.20
2023-05-04T05:26:01.321Z,11.25
2023-05-04T05:28:33.745Z,11.32
2023-05-04T05:31:07.163Z,11.38
2023-05-04T05:33:42.383Z,11.43
2023-05-04T05:36:15.122Z,11.50
2023-05-04T05:38:49.741Z,11.56
2023-05-04T05:41:22.841Z,11.60
2023-05-04T05:43:55.370Z,11.64
2023-05-04T05:46:28.994Z,11.70
2023-05-04T05:49:03.107Z,11.73
2023-05-04T05:51:35.956Z,11.74
2023-05-04T05:54:08.266Z,11.81
2023-05-04T05:56:40.633Z,11.88
2023-05-04T05:59:13.622Z,11.98
2023-05-04T06:01:46.124Z,12.12
2023-05-04T06:04:18.330Z,12.19
2023-05-04T06:06:50.937Z,12.23
2023-05-04T06:09:24.088Z,12.26
2023-05-04T06:11:56.945Z,12.29
2023-05-04T06:14:30.759Z,12.64
2023-05-04T06:17:03.270Z,13.80
2023-05-04T06:19:39.732Z,14.63
2023-05-04T06:22:12.911Z,15.01
2023-05-04T06:24:45.381Z,16.06
2023-05-04T06:27:18.228Z,17.18
2023-05-04T06:29:50.425Z,17.73
2023-05-04T06:32:22.937Z,17.83
2023-05-04T06:34:56.367Z,17.46
2023-05-04T06:37:29.242Z,17.46
2023-05-04T06:40:02.629Z,17.02
2023-05-04T06:42:34.915Z,16.70
2023-05-04T06:45:08.113Z,16.36
2023-05-04T06:47:40.327Z,15.88
2023-05-04T06:50:13.490Z,15.40
2023-05-04T06:52:46.769Z,15.03
2023-05-04T06:55:19.997Z,14.72
2023-05-04T06:57:53.402Z,14.42
2023-05-04T07:00:27.744Z,14.23
2023-05-04T07:03:00.341Z,14.17
2023-05-04T07:05:37.488Z,14.05
2023-05-04T07:08:10.379Z,14.01
2023-05-04T07:10:42.560Z,13.98
2023-05-04T07:13:16.158Z,13.85
2023-05-04T07:15:48.686Z,13.77
2023-05-04T07:18:20.905Z,13.69
2023-05-04T07:20:58.714Z,13.66
2023-05-04T07:23:28.132Z,13.64
2023-05-04T07:26:01.187Z,13.63
2023-05-04T07:28:34.762Z,13.63
2023-05-04T07:31:07.240Z,13.65
2023-05-04T07:33:40.272Z,13.66
2023-05-04T07:36:12.644Z,13.66
2023-05-04T07:38:45.825Z,13.66
2023-05-04T07:41:18.598Z,13.69
2023-05-04T07:43:51.002Z,13.68
2023-05-04T07:46:24.023Z,13.67
2023-05-04T07:48:56.652Z,13.67
2023-05-04T07:51:29.416Z,13.72
2023-05-04T07:54:02.174Z,13.72
2023-05-04T07:56:36.491Z,13.73
2023-05-04T07:59:08.886Z,13.77
2023-05-04T08:01:44.012Z,13.81
2023-05-04T08:04:15.523Z,13.86
2023-05-04T08:06:49.582Z,13.89
2023-05-04T08:09:22.200Z,13.94
2023-05-04T08:11:54.605Z,14.03
2023-05-04T08:14:27.566Z,14.11
2023-05-04T08:17:00.975Z,14.22
2023-05-04T08:19:33.947Z,14.31
2023-05-04T08:22:06.683Z,14.41
2023-05-04T08:24:40.175Z,14.42
2023-05-04T08:27:16.333Z,14.37
2023-05-04T08:29:50.573Z,14.32
2023-05-04T08:32:23.937Z,14.28
2023-05-04T08:34:56.571Z,14.32
2023-05-04T08:37:29.412Z,14.38
2023-05-04T08:40:02.022Z,14.52
2023-05-04T08:42:35.906Z,14.57
2023-05-04T08:45:10.816Z,14.57
2023-05-04T08:47:45.307Z,14.61
2023-05-04T08:50:18.127Z,14.62
2023-05-04T08:52:50.963Z,14.62
2023-05-04T08:55:23.522Z,14.63
2023-05-04T08:57:57.116Z,14.63
2023-05-04T09:00:31.720Z,14.73
2023-05-04T09:03:05.337Z,14.64
2023-05-04T09:05:38.789Z,14.81
2023-05-04T09:08:11.125Z,14.89
2023-05-04T09:10:43.902Z,14.92
2023-05-04T09:13:18.260Z,14.93
2023-05-04T09:15:58.849Z,15.01
2023-05-04T09:18:42.471Z,15.07
2023-05-04T09:21:15.068Z,15.13
2023-05-04T09:23:54.655Z,15.25
2023-05-04T09:26:31.852Z,15.34
2023-05-04T09:29:14.785Z,15.24
2023-05-04T09:31:51.732Z,15.17
2023-05-04T09:34:24.589Z,15.14
2023-05-04T09:37:02.758Z,15.16
2023-05-04T09:39:35.613Z,15.16
2023-05-04T09:42:10.599Z,15.28
2023-05-04T09:44:44.596Z,15.45
2023-05-04T09:47:18.810Z,15.64
2023-05-04T09:49:52.479Z,15.79
2023-05-04T09:52:27.204Z,15.98
2023-05-04T09:55:00.596Z,16.29
2023-05-04T09:57:33.599Z,16.44
2023-05-04T10:00:06.877Z,16.54
2023-05-04T10:02:40.129Z,16.68
2023-05-04T10:05:20.581Z,16.85
2023-05-04T10:07:55.619Z,17.01
2023-05-04T10:10:28.255Z,16.97
2023-05-04T10:13:04.225Z,16.77
2023-05-04T10:15:49.502Z,16.39
2023-05-04T10:18:33.374Z,16.39
2023-05-04T10:21:21.890Z,16.50
2023-05-04T10:24:02.896Z,16.67
2023-05-04T10:26:53.967Z,16.78
2023-05-04T10:29:29.017Z,16.77
2023-05-04T10:32:01.835Z,16.68
2023-05-04T10:34:35.857Z,16.72
2023-05-04T10:37:10.921Z,16.72
2023-05-04T10:39:46.373Z,16.84
2023-05-04T10:42:18.585Z,16.86
2023-05-04T10:44:54.672Z,16.93
2023-05-04T10:47:35.953Z,16.89
2023-05-04T10:50:12.188Z,16.92
2023-05-04T10:52:50.317Z,16.95
2023-05-04T10:55:24.992Z,16.99
2023-05-04T10:57:58.484Z,17.11
2023-05-04T11:00:45.065Z,17.10
2023-05-04T11:03:19.364Z,17.18
2023-05-04T11:05:52.773Z,17.18
2023-05-04T11:08:26.262Z,17.35
2023-05-04T11:11:08.275Z,17.05
2023-05-04T11:13:47.684Z,16.75
2023-05-04T11:16:27.520Z,16.75
2023-05-04T11:19:11.150Z,16.76
2023-05-04T11:21:43.541Z,16.76
2023-05-04T11:24:16.250Z,16.74
2023-05-04T11:26:50.188Z,16.51
2023-05-04T11:29:22.796Z,16.51
2023-05-04T11:31:56.706Z,16.54
2023-05-04T11:34:29.078Z,16.50
2023-05-04T11:37:03.032Z,16.51
2023-05-04T11:39:36.720Z,16.56
2023-05-04T11:42:10.042Z,16.68
2023-05-04T11:44:43.561Z,16.83
2023-05-04T11:47:16.471Z,18.19
2023-05-04T11:49:48.764Z,18.19
2023-05-04T11:52:25.893Z,19.14
2023-05-04T11:54:58.844Z,20.20
2023-05-04T11:57:32.245Z,21.59
2023-05-04T12:00:07.129Z,22.78
2023-05-04T12:02:39.596Z,24.17
2023-05-04T12:05:14.246Z,25.36
2023-05-04T12:07:46.916Z,26.15
2023-05-04T12:10:30.013Z,26.61
2023-05-04T12:13:03.084Z,27.08
2023-05-04T12:15:37.697Z,29.17
2023-05-04T12:18:09.020Z,30.98
2023-05-04T12:20:40.694Z,32.06
2023-05-04T12:23:13.176Z,29.50
2023-05-04T12:25:57.396Z,28.15
2023-05-04T12:28:20.979Z,28.33
2023-05-04T12:30:54.292Z,29.03
2023-05-04T12:33:27.028Z,29.42
2023-05-04T12:36:03.438Z,28.49
2023-05-04T12:38:36.427Z,27.29
2023-05-04T12:41:10.568Z,28.19
2023-05-04T12:43:43.813Z,28.71
2023-05-04T12:46:17.735Z,29.65
2023-05-04T12:48:51.005Z,30.67
2023-05-04T12:51:23.211Z,31.71
2023-05-04T12:53:58.312Z,32.36
2023-05-04T12:56:30.927Z,32.43
2023-05-04T12:59:03.499Z,32.49
2023-05-04T13:01:36.072Z,32.43
2023-05-04T13:04:08.357Z,31.93
2023-05-04T13:06:40.860Z,30.79
2023-05-04T13:09:13.627Z,29.52
2023-05-04T13:11:46.208Z,28.29
2023-05-04T13:14:19.232Z,27.72
2023-05-04T13:16:54.039Z,27.36
2023-05-04T13:19:26.235Z,26.84
2023-05-04T13:21:58.551Z,26.28
2023-05-04T13:24:31.887Z,25.54
2023-05-04T13:27:04.369Z,24.89
2023-05-04T13:29:37.102Z,24.35
2023-05-04T13:32:09.338Z,24.35
2023-05-04T13:34:42.093Z,25.17
2023-05-04T13:37:16.024Z,26.35
2023-05-04T13:39:48.838Z,27.53
2023-05-04T13:42:21.356Z,28.19
2023-05-04T13:44:53.923Z,28.46
2023-05-04T13:47:26.892Z,27.90
2023-05-04T13:49:59.634Z,26.96
2023-05-04T13:52:33.482Z,25.83
2023-05-04T13:55:06.512Z,24.90
2023-05-04T13:57:39.010Z,24.00
2023-05-04T14:00:12.642Z,23.29
2023-05-04T14:02:45.038Z,22.68
2023-05-04T14:05:17.758Z,22.29
2023-05-04T14:07:51.763Z,22.17
2023-05-04T14:10:24.390Z,21.98
2023-05-04T14:12:56.857Z,21.60
2023-05-04T14:15:29.430Z,21.24
2023-05-04T14:18:02.022Z,20.97
2023-05-04T14:20:34.218Z,20.78
2023-05-04T14:23:06.525Z,20.45
2023-05-04T14:25:38.981Z,20.38
2023-05-04T14:28:11.466Z,20.33
2023-05-04T14:30:43.847Z,20.18
2023-05-04T14:33:16.738Z,20.02
2023-05-04T14:35:49.101Z,19.80
2023-05-04T14:38:21.546Z,19.52
2023-05-04T14:40:55.492Z,19.23
2023-05-04T14:43:27.735Z,18.88
2023-05-04T14:46:03.775Z,18.62
2023-05-04T14:48:35.896Z,18.36
2023-05-04T14:51:08.255Z,18.20
2023-05-04T14:53:41.222Z,18.12
2023-05-04T14:56:13.654Z,18.10
2023-05-04T14:58:46.511Z,18.15
2023-05-04T15:01:18.670Z,18.16
2023-05-04T15:03:51.124Z,18.14
2023-05-04T15:06:23.391Z,18.09
2023-05-04T15:08:55.505Z,18.06
2023-05-04T15:11:27.638Z,18.02
2023-05-04T15:13:59.953Z,17.89
2023-05-04T15:16:33.444Z,17.77
2023-05-04T15:19:05.757Z,17.60
2023-05-04T15:21:38.412Z,17.47
2023-05-04T15:24:10.965Z,17.26
2023-05-04T15:26:43.473Z,17.16
2023-05-04T15:29:16.205Z,17.08
2023-05-04T15:31:48.796Z,17.05
2023-05-04T15:34:21.340Z,17.04
2023-05-04T15:36:53.693Z,17.05
2023-05-04T15:39:26.667Z,17.10
2023-05-04T15:41:59.220Z,17.10
2023-05-04T15:44:32.351Z,17.12
2023-05-04T15:47:06.358Z,17.16
2023-05-04T15:49:38.799Z,17.15
2023-05-04T15:52:11.744Z,17.16
2023-05-04T15:54:45.201Z,17.13
2023-05-04T15:57:17.577Z,17.12
2023-05-04T15:59:50.089Z,17.14
2023-05-04T16:02:22.566Z,17.17
2023-05-04T16:04:54.754Z,17.21
2023-05-04T16:07:27.349Z,17.26
2023-05-04T16:09:59.775Z,17.21
2023-05-04T16:12:33.553Z,17.22
2023-05-04T16:15:06.116Z,17.16
2023-05-04T16:17:38.692Z,17.03
2023-05-04T16:20:12.074Z,16.89
2023-05-04T16:22:44.479Z,16.75
2023-05-04T16:25:16.893Z,16.29
2023-05-04T16:27:50.543Z,16.29
2023-05-04T16:30:23.184Z,16.23
2023-05-04T16:32:57.044Z,16.08
2023-05-04T16:35:31.103Z,15.93
2023-05-04T16:38:04.168Z,15.75
2023-05-04T16:40:37.354Z,15.63
2023-05-04T16:43:10.602Z,15.50
2023-05-04T16:45:43.207Z,15.39
2023-05-04T16:48:15.722Z,15.11
2023-05-04T16:50:48.025Z,15.11
2023-05-04T16:53:21.093Z,15.13
2023-05-04T16:55:53.557Z,14.97
2023-05-04T16:58:26.477Z,14.84
2023-05-04T17:00:58.623Z,14.74
2023-05-04T17:03:32.958Z,14.62
2023-05-04T17:06:05.694Z,14.51
2023-05-04T17:08:37.937Z,14.41
2023-05-04T17:11:11.000Z,14.35
2023-05-04T17:13:43.608Z,14.29
2023-05-04T17:16:16.024Z,14.21
2023-05-04T17:18:48.413Z,14.17
2023-05-04T17:21:20.916Z,14.17
2023-05-04T17:23:53.345Z,14.15
2023-05-04T17:26:25.295Z,14.14
2023-05-04T17:28:57.600Z,14.09
2023-05-04T17:31:29.914Z,14.06
2023-05-04T17:34:02.567Z,14.08
2023-05-04T17:36:35.289Z,14.07
2023-05-04T17:39:07.682Z,14.09
2023-05-04T17:41:39.826Z,14.06
2023-05-04T17:44:12.478Z,14.03
2023-05-04T17:46:45.196Z,13.99
2023-05-04T17:49:19.166Z,14.03
2023-05-04T17:51:51.618Z,14.07
2023-05-04T17:54:23.951Z,14.06
2023-05-04T17:56:56.378Z,14.01
2023-05-04T17:59:28.839Z,14.01
2023-05-04T18:02:01.535Z,13.96
2023-05-04T18:04:35.366Z,13.94
2023-05-04T18:07:07.467Z,13.90
2023-05-04T18:09:39.618Z,13.86
2023-05-04T18:12:11.928Z,13.82
2023-05-04T18:14:44.286Z,13.76
2023-05-04T18:17:16.415Z,13.70
2023-05-04T18:19:48.771Z,13.59
2023-05-04T18:22:21.280Z,13.49
2023-05-04T18:24:53.336Z,13.37
2023-05-04T18:27:25.912Z,13.30
2023-05-04T18:29:58.351Z,13.29
2023-05-04T18:32:30.866Z,13.26
2023-05-04T18:35:12.210Z,13.21
2023-05-04T18:37:44.496Z,13.15
2023-05-04T18:40:16.812Z,13.09
2023-05-04T18:42:50.487Z,13.04
2023-05-04T18:45:22.714Z,13.02
2023-05-04T18:47:54.992Z,12.99
2023-05-04T18:50:27.413Z,12.97
2023-05-04T18:53:00.585Z,12.96
2023-05-04T18:55:32.838Z,12.91
2023-05-04T18:58:05.000Z,12.90
2023-05-04T19:00:37.376Z,12.86
2023-05-04T19:03:09.925Z,12.81
2023-05-04T19:05:42.299Z,12.82
2023-05-04T19:08:14.288Z,12.77
2023-05-04T19:10:49.857Z,12.79
2023-05-04T19:13:22.218Z,12.80
2023-05-04T19:15:54.286Z,12.82
2023-05-04T19:18:27.029Z,12.83
2023-05-04T19:20:59.203Z,12.83
2023-05-04T19:23:31.340Z,12.84
2023-05-04T19:26:04.370Z,12.87
2023-05-04T19:28:37.286Z,12.87
2023-05-04T19:31:10.009Z,12.85
2023-05-04T19:33:48.320Z,12.81
2023-05-04T19:36:17.182Z,12.76
2023-05-04T19:38:49.738Z,12.71
2023-05-04T19:41:22.618Z,12.68
2023-05-04T19:43:55.167Z,12.65
2023-05-04T19:46:28.082Z,12.59
2023-05-04T19:49:00.675Z,12.60
2023-05-04T19:51:33.026Z,12.68
2023-05-04T19:54:05.449Z,12.65
2023-05-04T19:56:37.719Z,12.71
2023-05-04T19:59:10.028Z,12.71
2023-05-04T20:01:42.148Z,12.70
2023-05-04T20:04:14.557Z,12.69
2023-05-04T20:06:46.751Z,12.67
2023-05-04T20:09:19.632Z,12.62
2023-05-04T20:11:51.804Z,12.58
2023-05-04T20:14:23.953Z,12.56
2023-05-04T20:16:56.137Z,12.52
2023-05-04T20:19:28.370Z,12.46
2023-05-04T20:22:00.564Z,12.37
2023-05-04T20:24:32.549Z,12.31
2023-05-04T20:27:05.159Z,12.19
2023-05-04T20:29:37.212Z,12.08
2023-05-04T20:32:10.877Z,11.99
2023-05-04T20:34:43.982Z,11.92
2023-05-04T20:37:16.321Z,11.87
2023-05-04T20:39:48.553Z,11.84
2023-05-04T20:42:21.872Z,11.75
2023-05-04T20:44:54.385Z,11.69
2023-05-04T20:47:26.700Z,11.64
2023-05-04T20:49:58.889Z,11.60
2023-05-04T20:52:32.597Z,11.54
2023-05-04T20:55:04.828Z,11.48
2023-05-04T20:57:37.176Z,11.39
2023-05-04T21:00:11.399Z,11.33
2023-05-04T21:02:43.574Z,11.28
2023-05-04T21:05:15.737Z,11.25
2023-05-04T21:07:48.247Z,11.20
2023-05-04T21:10:21.979Z,11.19
2023-05-04T21:12:54.344Z,11.16
2023-05-04T21:15:26.712Z,11.10
2023-05-04T21:17:59.109Z,11.00
2023-05-04T21:20:31.549Z,10.90
2023-05-04T21:23:04.320Z,10.84
2023-05-04T21:25:37.298Z,10.71
2023-05-04T21:28:09.607Z,10.66
2023-05-04T21:30:44.629Z,10.58
2023-05-04T21:33:17.493Z,10.49
2023-05-04T21:35:49.719Z,10.37
2023-05-04T21:38:22.619Z,10.29
2023-05-04T21:40:54.778Z,10.25
2023-05-04T21:43:27.138Z,10.23
2023-05-04T21:45:59.506Z,10.24
2023-05-04T21:48:31.881Z,10.26
2023-05-04T21:51:03.977Z,10.28
2023-05-04T21:53:36.776Z,10.29
2023-05-04T21:56:10.369Z,10.32
2023-05-04T21:58:43.491Z,10.34
2023-05-04T22:01:19.237Z,10.36
2023-05-04T22:03:53.096Z,10.37
2023-05-04T22:06:26.531Z,10.40
2023-05-04T22:08:58.642Z,10.43
2023-05-04T22:11:31.080Z,10.46
2023-05-04T22:14:03.200Z,10.49
2023-05-04T22:16:35.535Z,10.53
2023-05-04T22:19:07.839Z,10.52
2023-05-04T22:21:40.055Z,10.52
2023-05-04T22:24:12.169Z,10.53
2023-05-04T22:26:44.590Z,10.51
2023-05-04T22:29:16.872Z,10.48
2023-05-04T22:31:48.972Z,10.48
2023-05-04T22:34:22.044Z,10.47
2023-05-04T22:36:55.026Z,10.45
2023-05-04T22:39:27.757Z,10.41
2023-05-04T22:42:01.514Z,10.41
2023-05-04T22:44:35.318Z,10.37
2023-05-04T22:47:08.284Z,10.35
2023-05-04T22:49:41.526Z,10.29
2023-05-04T22:52:14.456Z,10.26
2023-05-04T22:54:47.760Z,10.23
2023-05-04T22:57:20.541Z,10.21
2023-05-04T22:59:53.343Z,10.25
2023-05-04T23:02:26.374Z,10.27
2023-05-04T23:05:00.694Z,10.29
2023-05-04T23:07:33.719Z,10.31
2023-05-04T23:10:07.403Z,10.37
2023-05-04T23:12:40.343Z,10.39
2023-05-04T23:15:14.211Z,10.40
2023-05-04T23:17:46.872Z,10.38
2023-05-04T23:20:19.918Z,10.38
2023-05-04T23:22:52.639Z,10.37
2023-05-04T23:25:25.516Z,10.38
2023-05-04T23:27:58.412Z,10.37
2023-05-04T23:30:31.187Z,10.37
2023-05-04T23:33:04.255Z,10.36
2023-05-04T23:35:36.966Z,10.34
2023-05-04T23:38:09.886Z,10.34
2023-05-04T23:40:42.706Z,10.32
2023-05-04T23:43:15.804Z,10.29
2023-05-04T23:45:48.966Z,10.24
2023-05-04T23:48:21.912Z,10.15
2023-05-04T23:50:57.583Z,10.05
2023-05-04T23:53:35.463Z,9.92
2023-05-04T23:56:08.540Z,9.77
2023-05-04T23:58:42.416Z,9.64
